CSN5219 ZBTJ-ZSHC
Flight info
| Callsign | CSN5219 |
|---|---|
| Flight time | N/A |
| Altitude | 40100 |
| Route | ELKUR8W ELKUR W40 DOXAB/K0872S1250 W40 YQG/K0867S1220 W142 DALIM/K0872S1250 A593 DPX A470 OF W95 SAPIN A470 IGRAT IGRAT91 |
| Aircraft | B77W/H-SDE1E2E3FGHIJ2J3J4J5M1RWXY/LB1D1 |
Departure
| Time | 2026-04-19 06:41 |
|---|---|
| Airport | Tianjin Binhai International Airport (ZBTJ) |
Arrival
| Time | N/A |
|---|---|
| Airport | Hangzhou Xiaoshan International Airport (ZSHC) |
| Time | Latitude | Longitude | Altitude | Speed | Heading |
|---|---|---|---|---|---|
| 2026-04-19 06:24 | 39.12430 | 117.35738 | 21 ft | 0 kts | 46° |
| 2026-04-19 06:33 | 39.12419 | 117.35724 | 22 ft | 2 kts | 46° |
| 2026-04-19 06:33 | 39.12407 | 117.35707 | 21 ft | 2 kts | 46° |
| 2026-04-19 06:33 | 39.12397 | 117.35693 | 21 ft | 2 kts | 46° |
| 2026-04-19 06:34 | 39.12388 | 117.35683 | 21 ft | 0 kts | 46° |
| 2026-04-19 06:34 | 39.12380 | 117.35671 | 21 ft | 2 kts | 37° |
| 2026-04-19 06:34 | 39.12363 | 117.35660 | 21 ft | 2 kts | 16° |
| 2026-04-19 06:34 | 39.12347 | 117.35657 | 21 ft | 2 kts | 1° |
| 2026-04-19 06:35 | 39.12332 | 117.35658 | 21 ft | 2 kts | 347° |
| 2026-04-19 06:35 | 39.12320 | 117.35663 | 22 ft | 0 kts | 334° |
| 2026-04-19 06:35 | 39.12317 | 117.35664 | 21 ft | 0 kts | 333° |
| 2026-04-19 06:36 | 39.12357 | 117.35593 | 21 ft | 21 kts | 270° |
| 2026-04-19 06:36 | 39.12295 | 117.35374 | 21 ft | 28 kts | 245° |
| 2026-04-19 06:37 | 39.12206 | 117.35147 | 25 ft | 27 kts | 243° |
| 2026-04-19 06:37 | 39.12061 | 117.35101 | 25 ft | 26 kts | 154° |
| 2026-04-19 06:37 | 39.11927 | 117.35182 | 24 ft | 11 kts | 156° |
| 2026-04-19 06:37 | 39.11852 | 117.35227 | 23 ft | 9 kts | 154° |
| 2026-04-19 06:38 | 39.11777 | 117.35273 | 22 ft | 13 kts | 146° |
| 2026-04-19 06:38 | 39.11713 | 117.35320 | 21 ft | 8 kts | 161° |
| 2026-04-19 06:38 | 39.11601 | 117.35388 | 21 ft | 20 kts | 140° |
| 2026-04-19 06:38 | 39.11400 | 117.35587 | 21 ft | 37 kts | 154° |
| 2026-04-19 06:39 | 39.11251 | 117.35583 | 21 ft | 10 kts | 187° |
| 2026-04-19 06:39 | 39.11202 | 117.35550 | 21 ft | 0 kts | 242° |
| 2026-04-19 06:39 | 39.11201 | 117.35548 | 21 ft | 0 kts | 242° |
| 2026-04-19 06:39 | 39.11188 | 117.35517 | 21 ft | 9 kts | 241° |
| 2026-04-19 06:40 | 39.11169 | 117.35438 | 23 ft | 8 kts | 275° |
| 2026-04-19 06:40 | 39.11199 | 117.35389 | 23 ft | 7 kts | 328° |
| 2026-04-19 06:40 | 39.11253 | 117.35352 | 23 ft | 13 kts | 333° |
| 2026-04-19 06:40 | 39.11688 | 117.35066 | 24 ft | 135 kts | 335° |
| 2026-04-19 06:41 | 39.12880 | 117.34358 | 359 ft | 221 kts | 334° |
| 2026-04-19 06:41 | 39.14012 | 117.33790 | 2689 ft | 191 kts | 335° |
| 2026-04-19 06:41 | 39.15254 | 117.33173 | 4235 ft | 215 kts | 335° |
| 2026-04-19 06:41 | 39.16592 | 117.32304 | 5865 ft | 233 kts | 329° |
| 2026-04-19 06:42 | 39.18059 | 117.31392 | 7482 ft | 252 kts | 331° |
| 2026-04-19 06:42 | 39.19664 | 117.30439 | 9098 ft | 269 kts | 331° |
| 2026-04-19 06:42 | 39.21345 | 117.29470 | 10803 ft | 280 kts | 330° |
| 2026-04-19 06:42 | 39.23143 | 117.28448 | 12503 ft | 300 kts | 331° |
| 2026-04-19 06:43 | 39.25051 | 117.27370 | 14179 ft | 307 kts | 330° |
| 2026-04-19 06:43 | 39.27024 | 117.26311 | 15338 ft | 317 kts | 330° |
| 2026-04-19 06:43 | 39.29106 | 117.25230 | 16256 ft | 334 kts | 331° |
| 2026-04-19 06:43 | 39.31337 | 117.24139 | 17191 ft | 354 kts | 335° |
| 2026-04-19 06:44 | 39.33791 | 117.23489 | 18121 ft | 380 kts | 349° |
| 2026-04-19 06:44 | 39.36262 | 117.23623 | 18954 ft | 403 kts | 2° |
| 2026-04-19 06:44 | 39.39037 | 117.24522 | 19917 ft | 423 kts | 14° |
| 2026-04-19 06:44 | 39.41754 | 117.26083 | 20900 ft | 443 kts | 24° |
| 2026-04-19 06:45 | 39.44406 | 117.28358 | 21661 ft | 465 kts | 35° |
| 2026-04-19 06:45 | 39.46752 | 117.31297 | 22419 ft | 485 kts | 47° |
| 2026-04-19 06:45 | 39.48709 | 117.34905 | 23109 ft | 504 kts | 59° |
| 2026-04-19 06:45 | 39.50114 | 117.39149 | 24053 ft | 515 kts | 72° |
| 2026-04-19 06:46 | 39.50805 | 117.43682 | 25028 ft | 521 kts | 86° |
| 2026-04-19 06:46 | 39.50748 | 117.48378 | 26001 ft | 525 kts | 98° |
| 2026-04-19 06:46 | 39.49939 | 117.52943 | 26871 ft | 528 kts | 112° |
| 2026-04-19 06:46 | 39.48405 | 117.57208 | 27651 ft | 531 kts | 125° |
| 2026-04-19 06:47 | 39.46176 | 117.60975 | 28516 ft | 528 kts | 139° |
| 2026-04-19 06:47 | 39.43388 | 117.64033 | 29346 ft | 526 kts | 152° |
| 2026-04-19 06:47 | 39.40179 | 117.66227 | 30249 ft | 518 kts | 166° |
| 2026-04-19 06:47 | 39.36777 | 117.67431 | 31512 ft | 501 kts | 179° |
| 2026-04-19 06:48 | 39.33393 | 117.67696 | 33093 ft | 480 kts | 190° |
| 2026-04-19 06:48 | 39.30132 | 117.67320 | 34291 ft | 466 kts | 199° |
| 2026-04-19 06:48 | 39.27033 | 117.66397 | 35449 ft | 454 kts | 206° |
| 2026-04-19 06:48 | 39.24102 | 117.65105 | 36409 ft | 447 kts | 212° |
| 2026-04-19 06:49 | 39.21327 | 117.63325 | 37326 ft | 437 kts | 220° |
| 2026-04-19 06:49 | 39.18887 | 117.61166 | 38340 ft | 424 kts | 227° |
| 2026-04-19 06:49 | 39.16659 | 117.58740 | 39239 ft | 416 kts | 229° |
| 2026-04-19 06:49 | 39.14487 | 117.56316 | 39805 ft | 416 kts | 229° |
| 2026-04-19 06:50 | 39.12296 | 117.53869 | 39950 ft | 418 kts | 229° |
| 2026-04-19 06:50 | 39.10114 | 117.51434 | 39961 ft | 419 kts | 230° |
| 2026-04-19 06:50 | 39.05707 | 117.46523 | 39960 ft | 420 kts | 230° |
| 2026-04-19 06:51 | 39.01309 | 117.41632 | 39952 ft | 421 kts | 229° |
| 2026-04-19 06:51 | 38.96907 | 117.36746 | 39948 ft | 418 kts | 229° |
| 2026-04-19 06:52 | 38.92541 | 117.31906 | 39965 ft | 418 kts | 229° |
| 2026-04-19 06:52 | 38.88048 | 117.26922 | 39949 ft | 436 kts | 229° |
| 2026-04-19 06:53 | 38.83385 | 117.21765 | 39950 ft | 445 kts | 229° |